LDPL Airport Information

Runway Information
Runway 09 Length 9678 ft width 148 ft
Elevation 169 ft Threshold 0 ft Heading 88
Runway 27 Length 9678 ft Width 148 ft
Elevation 274 ft Threshold 0 ft Heading 268
Airport Frequencies
Type APP Name APP Frequency 118.4 MHZ
Type TWR Name TWR Frequency 120 MHZ
Airport Navaids
Type NDB Name Cres Frequency 433 KHZ
Type NDB Name Kavran Frequency 265 KHZ
Type NDB Name Pula Frequency 352 KHZ
Type VOR-DME Name Pula Frequency 111250 KHZ
Airport Weather Information & NOTAM
ADDS - METARS form results

(1653 UTC 18 October 2018)
Data provider http://aviationweather.gov/metar/data/
 
METAR text: LDPL 181630Z VRB02KT CAVOK 17/15 Q1015 NOSIG
Conditions at: LDPL (PULA , HR) observed 1630 UTC 18 October 2018
Temperature: 17.0°C (63°F)
Dewpoint: 15.0°C (59°F) [RH = 88%]
Pressure (altimeter): 29.97 inches Hg (1015.0 mb)
Winds: variable direction winds at 2 MPH (2 knots; 1.0 m/s)
Visibility: 6 or more miles (10+ km)
Ceiling: ceiling and visibility are OK
Clouds: unknown
Weather: no significant weather observed at this time

METAR text: LDPL 181600Z VRB01KT CAVOK 18/15 Q1015 NOSIG
Conditions at: LDPL (PULA , HR) observed 1600 UTC 18 October 2018
Temperature: 18.0°C (64°F)
Dewpoint: 15.0°C (59°F) [RH = 83%]
Pressure (altimeter): 29.97 inches Hg (1015.0 mb)
Winds: variable direction winds at 1 MPH (1 knots; 0.5 m/s)
Visibility: 6 or more miles (10+ km)
Ceiling: ceiling and visibility are OK
Clouds: unknown
Weather: no significant weather observed at this time

Forecast for: LDPL (PULA , HR)
Text: TAF LDPL 181125Z 1812/1912 VRB02KT CAVOK TX22/1813Z TN14/1904Z
Forecast period: 1200 to 1800 UTC 18 October 2018
Forecast type: FROM: standard forecast or significant change
Winds: variable direction winds at 2 MPH (2 knots; 1.0 m/s)
Visibility: 6 or more miles 10+ km)
Ceiling: unknown
Clouds: missing
Weather: no significant weather forecast for this period
Text: BECMG 1818/1820 06007KT
Forecast period: 1800 UTC 18 October 2018 to 1200 UTC 19 October 2018
Forecast type: BECOMING: Conditions expected to become as follows by 2000 UTC 18 October 2018
Winds: from the ENE (60 degrees) at 8 MPH (7 knots; 3.6 m/s)
Visibility: 6 or more miles 10+ km)
Ceiling: unknown
Clouds: missing
Weather: no significant weather forecast for this period